Time;durP1;ratioP1;P1;durP2;ratioP2;P2;SDS_P1;SDS_P2;PMS_P1;PMS_P2;Temp;Humidity;BMP_temperature;BMP_pressure;BME280_temperature;BME280_humidity;BME280_pressure;Samples;Min_cycle;Max_cycle;Signal;HPM_P1;HPM_P2
2021/05/30 00:01:58;;;;;;;5.10;2.42;;;5.40;99.90;;;;;;5050403;28;20445;-46
2021/05/30 00:04:23;;;;;;;4.65;2.45;;;5.40;99.90;;;;;;5050404;28;20201;-45
2021/05/30 00:06:49;;;;;;;4.45;2.28;;;5.30;99.90;;;;;;5049317;28;20069;-46
2021/05/30 00:09:14;;;;;;;3.85;2.70;;;5.20;99.90;;;;;;5050012;28;20464;-49
2021/05/30 00:11:40;;;;;;;7.70;2.33;;;5.20;99.90;;;;;;5050513;28;20116;-46
2021/05/30 00:14:06;;;;;;;4.05;2.40;;;5.10;99.90;;;;;;5037135;28;20037;-46
2021/05/30 00:16:33;;;;;;;3.72;2.40;;;5.10;99.90;;;;;;5050557;28;20029;-47
2021/05/30 00:19:01;;;;;;;2.80;1.80;;;5.00;99.90;;;;;;5050146;28;20116;-51
2021/05/30 00:21:27;;;;;;;4.07;2.30;;;4.90;99.90;;;;;;5049602;28;20368;-46
2021/05/30 00:23:52;;;;;;;2.80;2.10;;;4.90;99.90;;;;;;5050373;28;20029;-49
2021/05/30 00:26:18;;;;;;;5.95;2.20;;;4.90;99.90;;;;;;5050485;28;20118;-46
2021/05/30 00:28:44;;;;;;;2.58;1.90;;;4.90;99.90;;;;;;5048656;28;20052;-46
2021/05/30 00:31:09;;;;;;;3.60;2.50;;;4.90;99.90;;;;;;5050243;28;20412;-47
2021/05/30 00:33:35;;;;;;;5.72;2.42;;;4.90;99.90;;;;;;5050215;28;20029;-44
2021/05/30 00:36:00;;;;;;;1.90;1.67;;;4.90;99.90;;;;;;5041654;28;20088;-47
2021/05/30 00:38:26;;;;;;;4.60;2.30;;;4.90;99.90;;;;;;5052646;28;20035;-45
2021/05/30 00:40:53;;;;;;;3.80;2.42;;;4.80;99.90;;;;;;5054356;28;20044;-46
2021/05/30 00:43:18;;;;;;;2.83;2.33;;;4.80;99.90;;;;;;5050406;28;20108;-47
2021/05/30 00:45:45;;;;;;;6.70;2.10;;;4.90;99.90;;;;;;5054165;28;20132;-46
2021/05/30 00:48:11;;;;;;;2.58;2.38;;;4.90;99.90;;;;;;5054086;28;20111;-46
2021/05/30 00:50:37;;;;;;;2.42;2.20;;;4.90;99.90;;;;;;5052799;28;20531;-48
2021/05/30 00:53:02;;;;;;;3.88;2.30;;;4.90;99.90;;;;;;5052585;28;20064;-48
2021/05/30 00:55:28;;;;;;;4.25;1.90;;;5.00;99.90;;;;;;5053834;28;20108;-50
2021/05/30 00:57:53;;;;;;;6.30;2.63;;;4.90;99.90;;;;;;5053641;28;20408;-49
2021/05/30 01:00:19;;;;;;;2.95;2.47;;;5.00;99.90;;;;;;5053807;28;20037;-47
2021/05/30 01:02:45;;;;;;;3.25;2.58;;;4.90;99.90;;;;;;5053762;28;20021;-45
2021/05/30 01:05:11;;;;;;;3.78;2.42;;;5.00;99.90;;;;;;5053763;28;20032;-47
2021/05/30 01:07:41;;;;;;;4.88;2.17;;;5.00;99.90;;;;;;5052540;28;20048;-48
2021/05/30 01:10:34;;;;;;;4.70;3.00;;;5.00;99.90;;;;;;5053563;28;20100;-44
2021/05/30 01:13:03;;;;;;;4.72;2.78;;;4.90;99.90;;;;;;5042909;28;20048;-49
2021/05/30 01:15:31;;;;;;;3.30;2.30;;;4.90;99.90;;;;;;5049783;28;20028;-48
2021/05/30 01:17:57;;;;;;;4.25;2.28;;;4.90;99.90;;;;;;5053635;28;20021;-50
2021/05/30 01:20:24;;;;;;;4.65;2.70;;;4.90;99.90;;;;;;5053247;28;20029;-50
2021/05/30 01:22:50;;;;;;;7.22;3.22;;;4.90;99.90;;;;;;5035486;28;20072;-50
2021/05/30 01:25:21;;;;;;;3.83;2.65;;;4.90;99.90;;;;;;5035175;28;20022;-49
2021/05/30 01:27:51;;;;;;;3.88;2.65;;;4.80;99.90;;;;;;5035223;28;20377;-51
2021/05/30 01:30:17;;;;;;;5.05;2.42;;;4.80;99.90;;;;;;5034975;28;20025;-51
2021/05/30 01:32:44;;;;;;;5.35;2.72;;;4.80;99.90;;;;;;5035311;28;20436;-47
2021/05/30 01:35:11;;;;;;;3.20;2.00;;;4.80;99.90;;;;;;5034927;28;20021;-51
2021/05/30 01:37:37;;;;;;;3.30;2.38;;;4.70;99.90;;;;;;5033768;28;20064;-48
2021/05/30 01:40:03;;;;;;;4.65;3.03;;;4.70;99.90;;;;;;5034722;28;20022;-48
2021/05/30 01:42:29;;;;;;;4.10;2.50;;;4.60;99.90;;;;;;5035171;28;20052;-49
2021/05/30 01:44:54;;;;;;;4.15;2.55;;;4.60;99.90;;;;;;5034814;28;20029;-46
2021/05/30 01:47:20;;;;;;;4.03;2.53;;;4.60;99.90;;;;;;5034243;28;20032;-43
2021/05/30 01:49:45;;;;;;;3.20;2.38;;;4.50;99.90;;;;;;5034876;28;20496;-46
2021/05/30 01:52:11;;;;;;;4.03;2.45;;;4.40;99.90;;;;;;5033514;28;20053;-48
2021/05/30 01:54:41;;;;;;;4.55;3.00;;;4.40;99.90;;;;;;5034722;28;20028;-49
2021/05/30 01:57:09;;;;;;;4.05;2.83;;;4.40;99.90;;;;;;5034510;28;20492;-47
2021/05/30 01:59:35;;;;;;;2.55;1.90;;;4.40;99.90;;;;;;5034477;28;20025;-47
2021/05/30 02:02:01;;;;;;;4.13;2.75;;;4.30;99.90;;;;;;5034427;28;20435;-51
2021/05/30 02:04:30;;;;;;;8.57;3.40;;;4.20;99.90;;;;;;5034492;28;20029;-49
2021/05/30 02:06:58;;;;;;;4.35;2.40;;;4.20;99.90;;;;;;5032047;28;20166;-48
2021/05/30 02:09:25;;;;;;;4.80;3.17;;;4.20;99.90;;;;;;5034274;28;20022;-44
2021/05/30 02:11:50;;;;;;;5.05;2.97;;;4.10;99.90;;;;;;5034561;28;20025;-51
2021/05/30 02:14:16;;;;;;;3.05;2.47;;;4.10;99.90;;;;;;5034036;28;20034;-52
2021/05/30 02:16:42;;;;;;;4.47;2.97;;;4.10;99.90;;;;;;5034321;28;20029;-44
2021/05/30 02:19:08;;;;;;;5.20;3.13;;;4.10;99.90;;;;;;5033896;28;20036;-50
2021/05/30 02:21:40;;;;;;;3.78;2.88;;;4.10;99.90;;;;;;5015275;28;20025;-46
2021/05/30 02:24:06;;;;;;;3.80;3.00;;;4.10;99.90;;;;;;5033992;28;20118;-45
2021/05/30 02:26:31;;;;;;;6.82;3.30;;;4.00;99.90;;;;;;5034122;28;20484;-48
2021/05/30 02:28:57;;;;;;;5.18;3.13;;;4.00;99.90;;;;;;5034281;28;20039;-46
2021/05/30 02:31:22;;;;;;;4.43;3.22;;;3.90;99.90;;;;;;5033938;28;20116;-46
2021/05/30 02:33:48;;;;;;;3.92;2.20;;;3.80;99.90;;;;;;5032910;28;20056;-48
2021/05/30 02:36:13;;;;;;;4.53;2.92;;;3.70;99.90;;;;;;5032389;28;20429;-45
2021/05/30 02:38:39;;;;;;;5.50;3.38;;;3.70;99.90;;;;;;5033850;28;20532;-44
2021/05/30 02:41:04;;;;;;;3.03;2.20;;;3.60;99.90;;;;;;5033811;28;20029;-44
2021/05/30 02:43:30;;;;;;;3.67;2.75;;;3.60;99.90;;;;;;5033931;28;20064;-49
2021/05/30 02:45:55;;;;;;;5.38;3.08;;;3.50;99.90;;;;;;5033611;28;20030;-49
2021/05/30 02:48:21;;;;;;;3.30;2.83;;;3.50;99.90;;;;;;5033764;28;20029;-47
2021/05/30 02:50:58;;;;;;;6.05;2.95;;;3.50;99.90;;;;;;5032428;28;20037;-46
2021/05/30 02:53:23;;;;;;;5.68;2.95;;;3.40;99.90;;;;;;5033903;28;20022;-46
2021/05/30 02:55:49;;;;;;;4.60;2.90;;;3.40;99.90;;;;;;5033559;28;20021;-50
2021/05/30 02:58:14;;;;;;;4.63;3.17;;;3.40;99.90;;;;;;5032367;28;20045;-46
2021/05/30 03:00:40;;;;;;;5.30;3.05;;;3.40;99.90;;;;;;5033391;28;20028;-51
2021/05/30 03:03:05;;;;;;;4.75;2.85;;;3.40;99.90;;;;;;5033364;28;20380;-46
2021/05/30 03:05:31;;;;;;;4.68;3.10;;;3.30;99.90;;;;;;5033274;28;20033;-47
2021/05/30 03:07:56;;;;;;;4.15;2.92;;;3.30;99.90;;;;;;5032165;28;20631;-51
2021/05/30 03:10:22;;;;;;;6.47;2.70;;;3.30;99.90;;;;;;5033204;28;20045;-49
2021/05/30 03:12:47;;;;;;;4.45;2.92;;;3.30;99.90;;;;;;5033332;28;20037;-52
2021/05/30 03:15:13;;;;;;;5.05;2.83;;;3.30;99.90;;;;;;5033057;28;20489;-48
2021/05/30 03:17:39;;;;;;;5.60;3.15;;;3.30;99.90;;;;;;5033110;28;20025;-45
2021/05/30 03:20:05;;;;;;;5.00;3.13;;;3.30;99.90;;;;;;5033067;28;20568;-50
2021/05/30 03:22:30;;;;;;;5.80;3.40;;;3.40;99.90;;;;;;5031795;28;20029;-47
2021/05/30 03:24:56;;;;;;;4.75;2.92;;;3.30;99.90;;;;;;5033099;28;20549;-48
2021/05/30 03:27:21;;;;;;;3.80;2.80;;;3.30;99.90;;;;;;5033198;28;20068;-46
2021/05/30 03:29:47;;;;;;;5.78;4.00;;;3.40;99.90;;;;;;5032980;28;20040;-49
2021/05/30 03:32:12;;;;;;;5.22;3.33;;;3.40;99.90;;;;;;5032742;28;20033;-46
2021/05/30 03:34:38;;;;;;;4.93;3.00;;;3.50;99.90;;;;;;5032900;28;20034;-47
2021/05/30 03:37:03;;;;;;;6.28;3.33;;;3.50;99.90;;;;;;5031407;28;20017;-47
2021/05/30 03:39:31;;;;;;;7.18;3.15;;;3.60;99.90;;;;;;5031407;28;20113;-48
2021/05/30 03:41:58;;;;;;;6.90;3.25;;;3.90;99.90;;;;;;5032959;28;20484;-46
2021/05/30 03:44:24;;;;;;;4.10;2.05;;;5.00;99.90;;;;;;5032860;28;20357;-49
2021/05/30 03:46:50;;;;;;;4.35;3.08;;;6.50;99.90;;;;;;5032667;28;20083;-46
2021/05/30 03:49:15;;;;;;;2.28;2.08;;;7.90;99.90;;;;;;5032661;28;20033;-46
2021/05/30 03:51:41;;;;;;;3.35;2.42;;;9.30;99.90;;;;;;5031286;28;20140;-48
2021/05/30 03:54:06;;;;;;;1.70;1.60;;;10.50;99.90;;;;;;5032716;28;20037;-45
2021/05/30 03:56:32;;;;;;;2.38;1.77;;;11.70;99.10;;;;;;5032390;28;20037;-51
2021/05/30 03:58:58;;;;;;;2.95;1.88;;;12.80;93.60;;;;;;5032670;28;20562;-48
2021/05/30 04:01:24;;;;;;;1.98;1.85;;;13.80;90.90;;;;;;5032242;28;20101;-47
2021/05/30 04:03:49;;;;;;;4.05;2.00;;;14.50;87.50;;;;;;5032622;28;20021;-49
2021/05/30 04:06:15;;;;;;;2.38;2.15;;;15.20;83.90;;;;;;5031221;28;20411;-47
2021/05/30 04:08:40;;;;;;;2.15;1.90;;;16.00;81.20;;;;;;5032618;28;20030;-50
2021/05/30 04:11:06;;;;;;;2.20;1.80;;;16.60;79.10;;;;;;5032220;28;20480;-51
2021/05/30 04:13:31;;;;;;;2.55;1.60;;;17.20;77.30;;;;;;5032370;28;20053;-47
2021/05/30 04:15:57;;;;;;;1.88;1.70;;;17.70;75.70;;;;;;5032431;28;20063;-51
2021/05/30 04:18:23;;;;;;;1.83;1.58;;;18.30;73.80;;;;;;5032221;28;20061;-51
2021/05/30 04:20:50;;;;;;;3.40;1.73;;;18.90;72.30;;;;;;5030999;28;20021;-52
2021/05/30 04:23:16;;;;;;;1.85;1.52;;;19.50;71.50;;;;;;5032381;28;20030;-48
2021/05/30 04:25:42;;;;;;;1.52;1.40;;;20.00;69.00;;;;;;5032262;28;20075;-50
2021/05/30 04:28:07;;;;;;;2.25;1.73;;;20.50;67.70;;;;;;5032333;28;20033;-47
2021/05/30 04:30:33;;;;;;;1.83;1.63;;;21.00;66.40;;;;;;5032099;28;20033;-48
2021/05/30 04:32:58;;;;;;;1.73;1.60;;;21.40;65.00;;;;;;5032237;28;20076;-47
2021/05/30 04:35:24;;;;;;;1.60;1.50;;;21.70;64.50;;;;;;5031927;28;20022;-49
2021/05/30 04:37:49;;;;;;;1.70;1.60;;;22.10;63.30;;;;;;5030975;28;20025;-47
2021/05/30 04:40:17;;;;;;;2.22;1.45;;;22.50;62.40;;;;;;5032063;28;20040;-49
2021/05/30 04:42:43;;;;;;;1.98;1.52;;;22.90;61.00;;;;;;5032365;28;20152;-48
2021/05/30 04:45:09;;;;;;;2.03;1.35;;;23.40;59.80;;;;;;5032184;28;20486;-45
2021/05/30 04:47:34;;;;;;;1.58;1.20;;;24.00;59.00;;;;;;5031919;28;20047;-52
2021/05/30 04:50:00;;;;;;;1.55;1.23;;;24.40;57.90;;;;;;5032003;28;20408;-51
2021/05/30 04:52:25;;;;;;;2.88;1.60;;;24.80;57.30;;;;;;5030908;28;20052;-51
2021/05/30 04:54:51;;;;;;;2.30;1.42;;;25.10;56.00;;;;;;5032127;28;20420;-51
2021/05/30 04:57:17;;;;;;;2.58;1.58;;;25.30;55.00;;;;;;5031847;28;20049;-49
2021/05/30 04:59:43;;;;;;;1.88;1.60;;;25.60;53.90;;;;;;5032024;28;20028;-53
2021/05/30 05:02:08;;;;;;;2.47;1.60;;;25.80;50.80;;;;;;5030701;28;20109;-48
2021/05/30 05:04:34;;;;;;;5.10;2.05;;;26.10;52.00;;;;;;5031894;28;20037;-48
2021/05/30 05:06:59;;;;;;;5.55;1.80;;;26.40;50.60;;;;;;5030503;28;20029;-47
2021/05/30 05:09:25;;;;;;;2.90;2.10;;;26.70;51.10;;;;;;5031927;28;20121;-51
2021/05/30 05:11:50;;;;;;;1.77;1.60;;;27.00;49.40;;;;;;5031880;28;20032;-54
2021/05/30 05:14:16;;;;;;;4.07;2.15;;;27.10;49.20;;;;;;5031949;28;20330;-50
2021/05/30 05:16:41;;;;;;;3.65;2.08;;;27.60;49.10;;;;;;5031639;28;20105;-50
2021/05/30 05:19:07;;;;;;;2.53;1.80;;;27.60;47.50;;;;;;5032859;28;20029;-45
2021/05/30 05:21:32;;;;;;;4.28;1.85;;;27.50;47.20;;;;;;5030700;28;20032;-47
2021/05/30 05:23:59;;;;;;;4.28;2.10;;;27.80;47.10;;;;;;5035460;28;20397;-50
2021/05/30 05:26:24;;;;;;;2.55;1.60;;;27.80;45.80;;;;;;5035175;28;20033;-51
2021/05/30 05:28:50;;;;;;;4.07;2.30;;;27.80;44.90;;;;;;5035399;28;20044;-49
2021/05/30 05:31:16;;;;;;;2.95;1.90;;;27.70;44.80;;;;;;5033901;28;20048;-51
2021/05/30 05:33:43;;;;;;;3.17;1.83;;;27.90;44.90;;;;;;5034959;28;20038;-50
2021/05/30 05:36:09;;;;;;;3.58;2.10;;;27.90;44.00;;;;;;5033714;28;20022;-48
2021/05/30 05:38:35;;;;;;;3.03;2.00;;;28.10;44.00;;;;;;5035093;28;20053;-48
2021/05/30 05:41:01;;;;;;;4.47;2.13;;;28.40;43.20;;;;;;5035069;28;20021;-54
2021/05/30 05:43:26;;;;;;;3.65;1.90;;;28.60;42.90;;;;;;5034971;28;20021;-52
2021/05/30 05:45:52;;;;;;;4.97;2.10;;;28.40;42.40;;;;;;5034999;28;20498;-47
2021/05/30 05:48:17;;;;;;;2.20;1.67;;;28.80;42.50;;;;;;5034856;28;20021;-47
2021/05/30 05:50:44;;;;;;;4.25;2.50;;;29.00;42.20;;;;;;5033333;28;20108;-48
2021/05/30 05:53:10;;;;;;;8.05;3.33;;;28.70;41.10;;;;;;5034923;28;20022;-49
2021/05/30 05:55:35;;;;;;;3.85;2.30;;;28.70;41.60;;;;;;5034605;28;20035;-48
2021/05/30 05:58:02;;;;;;;3.70;1.80;;;28.80;41.30;;;;;;5034613;28;20475;-48
2021/05/30 06:00:28;;;;;;;3.15;1.80;;;29.30;41.40;;;;;;5034786;28;20523;-50
2021/05/30 06:02:54;;;;;;;4.43;2.22;;;29.50;40.60;;;;;;5034822;28;20076;-50
2021/05/30 06:05:21;;;;;;;3.53;2.20;;;29.20;39.30;;;;;;5054078;28;20048;-46
2021/05/30 06:07:49;;;;;;;4.05;2.22;;;29.00;40.30;;;;;;5053415;28;20460;-49
2021/05/30 06:10:17;;;;;;;3.95;1.98;;;29.10;40.60;;;;;;5054358;28;20029;-49
2021/05/30 06:12:43;;;;;;;9.10;1.90;;;29.10;39.80;;;;;;5052773;28;20710;-47
2021/05/30 06:15:09;;;;;;;5.72;2.30;;;29.70;40.10;;;;;;5054313;28;20033;-51
2021/05/30 06:17:35;;;;;;;2.33;1.55;;;29.90;38.50;;;;;;5054118;28;20025;-46
2021/05/30 06:20:01;;;;;;;4.78;2.05;;;29.90;38.70;;;;;;5054048;28;20494;-47
2021/05/30 06:22:27;;;;;;;4.15;1.80;;;29.80;38.60;;;;;;5053116;28;20087;-51
2021/05/30 06:24:53;;;;;;;3.30;1.70;;;30.00;37.60;;;;;;5054051;28;20025;-48
2021/05/30 06:27:19;;;;;;;2.90;1.90;;;29.90;37.90;;;;;;5053972;28;20022;-52
2021/05/30 06:29:45;;;;;;;2.90;1.58;;;30.30;37.90;;;;;;5053857;28;20048;-48
2021/05/30 06:32:10;;;;;;;5.32;2.13;;;30.50;37.60;;;;;;5053735;28;20430;-51
2021/05/30 06:34:36;;;;;;;3.65;1.95;;;30.90;35.90;;;;;;5053626;28;20051;-52
2021/05/30 06:37:01;;;;;;;3.63;1.77;;;30.80;35.70;;;;;;5034206;28;20366;-47
2021/05/30 06:39:27;;;;;;;3.17;1.80;;;30.40;35.70;;;;;;5033708;28;20028;-49
2021/05/30 06:41:53;;;;;;;3.03;1.80;;;30.30;35.10;;;;;;5033750;28;20033;-49
2021/05/30 06:44:19;;;;;;;4.07;2.20;;;30.20;35.10;;;;;;5033838;28;20029;-50
2021/05/30 06:46:45;;;;;;;4.35;1.80;;;29.50;34.20;;;;;;5033305;28;20112;-50
2021/05/30 06:49:10;;;;;;;2.20;1.88;;;29.20;34.40;;;;;;5033735;28;20040;-51
2021/05/30 06:51:36;;;;;;;2.88;1.48;;;29.30;34.40;;;;;;5032388;28;20408;-51
2021/05/30 06:54:03;;;;;;;3.22;2.13;;;29.60;34.90;;;;;;5033495;28;20029;-48
2021/05/30 06:56:29;;;;;;;4.68;2.25;;;29.30;33.20;;;;;;5033169;28;20026;-51
2021/05/30 06:58:56;;;;;;;3.47;1.95;;;29.10;33.70;;;;;;5033529;28;20039;-51
2021/05/30 07:01:22;;;;;;;5.13;2.08;;;29.10;33.80;;;;;;5033450;28;20030;-48
2021/05/30 07:03:49;;;;;;;3.38;1.80;;;29.40;32.90;;;;;;5033478;28;20041;-50
2021/05/30 07:06:16;;;;;;;3.10;1.80;;;29.50;32.80;;;;;;5032376;28;20026;-47
2021/05/30 07:08:42;;;;;;;3.50;1.90;;;29.90;33.00;;;;;;5033488;28;20041;-49
2021/05/30 07:11:08;;;;;;;2.20;1.70;;;30.50;33.00;;;;;;5033413;28;20461;-51
2021/05/30 07:13:34;;;;;;;2.42;1.60;;;31.10;31.60;;;;;;5047162;28;20427;-46
2021/05/30 07:15:59;;;;;;;2.88;1.73;;;31.10;31.50;;;;;;5053102;28;20029;-48
2021/05/30 07:18:25;;;;;;;5.68;2.00;;;31.40;32.20;;;;;;5053103;28;20029;-51
2021/05/30 07:20:53;;;;;;;4.38;1.80;;;31.40;31.30;;;;;;5052055;28;20086;-50
2021/05/30 07:23:20;;;;;;;3.55;1.88;;;31.00;31.20;;;;;;5053114;28;20017;-47
2021/05/30 07:25:46;;;;;;;3.65;1.80;;;31.10;31.60;;;;;;5051677;28;20025;-49
2021/05/30 07:28:11;;;;;;;2.90;1.73;;;31.00;30.50;;;;;;5052909;28;20416;-48
2021/05/30 07:30:37;;;;;;;2.88;1.67;;;31.20;31.20;;;;;;5036885;28;20022;-62
2021/05/30 07:33:04;;;;;;;2.83;1.63;;;31.60;31.00;;;;;;5032926;28;20155;-63
2021/05/30 07:35:31;;;;;;;2.45;1.48;;;31.40;30.00;;;;;;5033102;28;20376;-62
2021/05/30 07:37:57;;;;;;;5.22;1.52;;;31.00;29.50;;;;;;5041437;28;20032;-62
2021/05/30 07:40:23;;;;;;;2.55;1.52;;;30.70;28.60;;;;;;5052736;28;20357;-64
2021/05/30 07:42:49;;;;;;;3.92;1.65;;;30.60;29.40;;;;;;5051278;28;20028;-64
2021/05/30 07:45:17;;;;;;;2.28;1.15;;;31.00;29.20;;;;;;5051749;28;20052;-64
2021/05/30 07:47:43;;;;;;;2.25;1.40;;;31.40;29.00;;;;;;5052354;28;20042;-63
2021/05/30 07:50:10;;;;;;;2.20;1.50;;;31.30;29.00;;;;;;5052470;28;20131;-64
2021/05/30 07:52:36;;;;;;;1.83;1.05;;;31.10;28.90;;;;;;5051363;28;20070;-63
2021/05/30 07:55:03;;;;;;;7.07;1.30;;;31.90;29.30;;;;;;5052452;28;20436;-63
2021/05/30 07:57:28;;;;;;;1.40;1.08;;;32.20;29.10;;;;;;5052143;28;20128;-62
2021/05/30 07:59:54;;;;;;;2.55;1.08;;;32.50;28.30;;;;;;5051965;28;20116;-63
2021/05/30 08:02:19;;;;;;;4.10;1.60;;;32.10;28.30;;;;;;5052351;28;20037;-63
2021/05/30 08:04:45;;;;;;;2.22;1.30;;;32.10;28.40;;;;;;5052108;28;20074;-62
2021/05/30 08:07:10;;;;;;;4.05;1.52;;;31.80;28.50;;;;;;5051269;28;20032;-63
2021/05/30 08:09:36;;;;;;;8.73;1.58;;;32.10;28.70;;;;;;5052241;28;20029;-64
2021/05/30 08:12:03;;;;;;;1.55;1.20;;;31.80;27.00;;;;;;5052167;28;20086;-61
2021/05/30 08:14:29;;;;;;;1.88;1.10;;;31.80;27.50;;;;;;5051974;28;20033;-65
2021/05/30 08:16:55;;;;;;;2.05;1.20;;;31.40;27.70;;;;;;5052029;28;20057;-62
2021/05/30 08:19:20;;;;;;;1.10;0.77;;;31.40;27.30;;;;;;5051969;28;20068;-63
2021/05/30 08:21:46;;;;;;;2.35;1.25;;;31.40;27.00;;;;;;5051002;28;20108;-63
2021/05/30 08:24:12;;;;;;;1.67;0.98;;;30.90;25.60;;;;;;5051423;28;20175;-64
2021/05/30 08:26:39;;;;;;;1.08;0.80;;;30.40;26.20;;;;;;5051722;28;20029;-65
2021/05/30 08:29:05;;;;;;;1.33;0.60;;;30.40;26.60;;;;;;5051882;28;20484;-63
2021/05/30 08:31:30;;;;;;;1.98;1.10;;;30.80;25.90;;;;;;5051897;28;20040;-64
2021/05/30 08:33:56;;;;;;;2.22;0.73;;;30.60;25.90;;;;;;5035471;28;20029;-64
2021/05/30 08:36:21;;;;;;;1.15;0.98;;;30.30;26.20;;;;;;5031081;28;20103;-63
2021/05/30 08:38:47;;;;;;;1.92;0.90;;;30.30;26.10;;;;;;5031625;28;20072;-63
2021/05/30 08:41:12;;;;;;;1.90;1.00;;;29.70;26.40;;;;;;5032083;28;20037;-64
2021/05/30 08:43:38;;;;;;;1.38;0.95;;;29.70;26.40;;;;;;5030540;28;20030;-64
2021/05/30 08:46:03;;;;;;;1.98;1.20;;;29.60;26.60;;;;;;5032042;28;20026;-63
2021/05/30 08:48:29;;;;;;;1.90;0.80;;;30.10;27.00;;;;;;5031921;28;20037;-64
2021/05/30 08:51:05;;;;;;;1.88;0.90;;;30.00;26.10;;;;;;5030683;28;20079;-63
2021/05/30 08:53:36;;;;;;;2.35;1.10;;;29.30;27.10;;;;;;5031961;28;20152;-64
2021/05/30 08:56:03;;;;;;;1.65;0.85;;;29.50;27.20;;;;;;5031729;28;20037;-64
2021/05/30 08:58:34;;;;;;;1.17;0.82;;;30.20;27.60;;;;;;5035182;28;20045;-63
2021/05/30 09:01:16;;;;;;;1.85;0.98;;;30.60;27.70;;;;;;5035509;28;20052;-64
2021/05/30 09:04:03;;;;;;;2.88;1.15;;;30.80;27.70;;;;;;5034436;28;20033;-64
2021/05/30 09:06:30;;;;;;;1.60;1.38;;;29.60;27.90;;;;;;5034418;28;20025;-63
2021/05/30 09:08:56;;;;;;;2.63;1.15;;;29.90;28.40;;;;;;5035085;28;20029;-64
2021/05/30 09:11:48;;;;;;;3.03;1.27;;;29.60;28.30;;;;;;5035596;28;20025;-64
2021/05/30 09:14:31;;;;;;;2.25;1.30;;;29.30;28.40;;;;;;5054689;28;20024;-64
2021/05/30 09:17:04;;;;;;;1.85;1.20;;;29.10;28.70;;;;;;5055020;28;20027;-64
2021/05/30 09:19:47;;;;;;;1.55;1.35;;;29.30;28.50;;;;;;5053974;28;20025;-65
2021/05/30 09:22:29;;;;;;;3.45;1.60;;;29.10;29.70;;;;;;5054348;28;20073;-64
2021/05/30 09:25:02;;;;;;;3.35;1.40;;;28.70;29.10;;;;;;5054744;28;20063;-65
2021/05/30 09:27:29;;;;;;;2.40;1.48;;;28.00;29.70;;;;;;5054970;28;20104;-64
2021/05/30 09:30:14;;;;;;;4.65;1.30;;;27.50;29.70;;;;;;5055030;28;20025;-65
2021/05/30 09:33:14;;;;;;;8.40;1.55;;;27.60;30.10;;;;;;5053928;28;20024;-63
2021/05/30 09:35:39;;;;;;;4.10;1.33;;;27.80;30.30;;;;;;5046264;28;20076;-66
2021/05/30 09:38:27;;;;;;;2.53;1.02;;;27.60;30.10;;;;;;5033616;28;20026;-64
2021/05/30 09:40:57;;;;;;;2.05;1.20;;;27.10;31.30;;;;;;5034980;28;20045;-63
2021/05/30 09:43:27;;;;;;;2.10;1.13;;;27.00;31.40;;;;;;5034965;28;20057;-64
2021/05/30 09:46:11;;;;;;;2.10;1.27;;;27.20;31.20;;;;;;5034963;28;20197;-63
2021/05/30 09:48:45;;;;;;;2.63;1.70;;;27.10;31.80;;;;;;5034910;28;20056;-64
2021/05/30 09:51:33;;;;;;;2.38;1.20;;;26.60;31.50;;;;;;5033946;28;20052;-65
2021/05/30 09:54:02;;;;;;;2.38;1.10;;;26.00;32.70;;;;;;5034749;28;20025;-63
2021/05/30 09:56:38;;;;;;;1.88;1.45;;;24.40;33.50;;;;;;5034724;28;20028;-63
2021/05/30 09:59:12;;;;;;;3.47;1.55;;;23.40;35.10;;;;;;5034765;28;20432;-63
2021/05/30 10:01:58;;;;;;;3.50;1.63;;;22.60;35.80;;;;;;5034766;28;20029;-63
2021/05/30 10:04:27;;;;;;;4.80;1.67;;;21.80;37.90;;;;;;5034645;28;20025;-63
2021/05/30 10:06:55;;;;;;;3.50;1.17;;;21.30;37.90;;;;;;5033592;28;20057;-64
2021/05/30 10:09:21;;;;;;;3.75;1.30;;;21.00;38.40;;;;;;5033975;28;20484;-65
2021/05/30 10:11:47;;;;;;;1.58;1.13;;;20.70;38.40;;;;;;5034458;28;20034;-65
2021/05/30 10:14:12;;;;;;;2.97;1.25;;;20.50;38.60;;;;;;5053426;28;20028;-64
2021/05/30 10:16:38;;;;;;;2.10;1.30;;;20.40;39.20;;;;;;5054389;28;20036;-65
2021/05/30 10:19:14;;;;;;;2.28;1.23;;;20.30;40.50;;;;;;5053727;28;20029;-64
2021/05/30 10:21:46;;;;;;;2.25;1.50;;;20.00;40.30;;;;;;5053311;28;20024;-61
2021/05/30 10:24:13;;;;;;;2.47;1.50;;;19.70;41.00;;;;;;5052866;28;20407;-64
2021/05/30 10:26:39;;;;;;;3.42;1.63;;;19.50;41.20;;;;;;5054176;28;20029;-63
2021/05/30 10:29:14;;;;;;;2.90;1.73;;;19.30;41.50;;;;;;5053991;28;20028;-63
2021/05/30 10:31:42;;;;;;;3.07;1.73;;;19.00;42.10;;;;;;5054232;28;20183;-64
2021/05/30 10:34:10;;;;;;;2.22;1.45;;;19.00;42.30;;;;;;5053692;28;20028;-64
2021/05/30 10:36:40;;;;;;;2.10;1.52;;;19.00;42.90;;;;;;5038075;28;20100;-64
2021/05/30 10:39:29;;;;;;;1.50;1.10;;;19.00;42.20;;;;;;5033885;28;20383;-64
2021/05/30 10:42:25;;;;;;;1.65;1.20;;;19.10;42.60;;;;;;5033781;28;20108;-64
2021/05/30 10:45:05;;;;;;;4.18;1.40;;;19.20;43.00;;;;;;5033820;28;20021;-64
2021/05/30 10:47:43;;;;;;;4.20;1.63;;;19.30;42.40;;;;;;5033838;28;20033;-64
2021/05/30 10:50:17;;;;;;;4.30;1.52;;;19.20;41.90;;;;;;5033582;28;20053;-62
2021/05/30 10:52:45;;;;;;;2.97;1.52;;;19.20;42.20;;;;;;5032944;28;20021;-64
2021/05/30 10:55:19;;;;;;;1.77;1.23;;;19.30;43.50;;;;;;5033254;28;20041;-64
2021/05/30 10:57:47;;;;;;;4.05;1.50;;;19.30;42.80;;;;;;5033346;28;20053;-63
2021/05/30 11:00:21;;;;;;;2.58;1.58;;;19.40;42.70;;;;;;5033391;28;20061;-63
2021/05/30 11:03:03;;;;;;;3.70;1.40;;;19.40;42.60;;;;;;5033646;28;20090;-64
2021/05/30 11:05:45;;;;;;;4.97;1.52;;;19.40;42.30;;;;;;5032765;28;20018;-64
2021/05/30 11:08:34;;;;;;;2.60;1.40;;;19.30;41.30;;;;;;5033364;28;20028;-64
2021/05/30 11:11:12;;;;;;;4.60;1.58;;;19.20;42.50;;;;;;5033145;28;20029;-64
2021/05/30 11:13:52;;;;;;;1.98;1.42;;;19.10;42.40;;;;;;5047630;28;20025;-64
2021/05/30 11:16:19;;;;;;;4.80;1.80;;;18.90;42.20;;;;;;5050616;28;20436;-63
2021/05/30 11:19:10;;;;;;;2.33;1.48;;;18.90;39.30;;;;;;5032738;28;20033;-64
2021/05/30 11:21:43;;;;;;;3.88;1.85;;;18.90;40.20;;;;;;5032071;28;20032;-64
2021/05/30 11:24:12;;;;;;;2.35;1.48;;;18.80;41.30;;;;;;5032331;28;20029;-64
2021/05/30 11:26:38;;;;;;;3.13;1.50;;;18.80;41.80;;;;;;5033003;28;20468;-64
2021/05/30 11:29:06;;;;;;;4.80;1.58;;;18.80;41.70;;;;;;5031744;28;20037;-64
2021/05/30 11:31:33;;;;;;;1.83;1.45;;;18.80;40.30;;;;;;5032798;28;20044;-64
2021/05/30 11:34:06;;;;;;;3.47;1.48;;;18.70;40.30;;;;;;5032154;28;20104;-64
2021/05/30 11:36:36;;;;;;;2.25;1.60;;;18.80;41.50;;;;;;5031866;28;20143;-64
2021/05/30 11:39:17;;;;;;;3.28;1.52;;;18.70;41.30;;;;;;5029980;28;20116;-64
2021/05/30 11:41:52;;;;;;;2.55;1.23;;;18.70;42.70;;;;;;5032770;28;20013;-64
2021/05/30 11:44:20;;;;;;;4.30;1.65;;;18.70;41.70;;;;;;5032763;28;20049;-63
2021/05/30 11:46:49;;;;;;;3.95;1.35;;;18.80;41.50;;;;;;5032784;28;20018;-64
2021/05/30 11:49:20;;;;;;;1.95;1.17;;;18.80;41.80;;;;;;5032206;28;20418;-66
2021/05/30 11:51:51;;;;;;;2.85;1.30;;;18.80;42.00;;;;;;5031773;28;20083;-64
2021/05/30 11:54:19;;;;;;;4.18;1.60;;;19.00;42.20;;;;;;5023667;28;20484;-66
2021/05/30 11:56:47;;;;;;;8.10;1.40;;;19.10;42.30;;;;;;5044175;28;20053;-61
2021/05/30 11:59:13;;;;;;;3.00;1.80;;;19.10;42.60;;;;;;5041071;28;20021;-61
2021/05/30 12:01:49;;;;;;;2.38;1.38;;;19.20;42.40;;;;;;5049716;28;20024;-62
2021/05/30 12:04:35;;;;;;;2.65;1.60;;;19.10;42.70;;;;;;5050537;28;20384;-62
2021/05/30 12:07:01;;;;;;;4.17;1.60;;;19.00;43.30;;;;;;5049562;28;20013;-62
2021/05/30 12:09:47;;;;;;;3.70;1.40;;;18.90;43.90;;;;;;5039782;28;20882;-61
2021/05/30 12:12:31;;;;;;;2.85;1.33;;;18.90;44.20;;;;;;5033779;28;20068;-63
2021/05/30 12:15:03;;;;;;;2.72;1.50;;;19.00;44.10;;;;;;5032296;28;20053;-61
2021/05/30 12:17:29;;;;;;;2.22;1.55;;;19.00;44.50;;;;;;5050465;28;20029;-62
2021/05/30 12:19:56;;;;;;;1.67;1.38;;;19.00;43.90;;;;;;5050158;28;20380;-63
2021/05/30 12:22:25;;;;;;;4.57;1.67;;;19.10;43.00;;;;;;5049598;28;20348;-62
2021/05/30 12:24:51;;;;;;;3.22;1.52;;;19.20;42.70;;;;;;5050115;28;20028;-62
2021/05/30 12:27:18;;;;;;;2.83;1.63;;;19.20;44.10;;;;;;5048559;28;20033;-60
2021/05/30 12:29:47;;;;;;;5.97;1.80;;;19.30;45.00;;;;;;5046855;28;20139;-63
2021/05/30 12:32:15;;;;;;;5.40;1.80;;;19.30;44.50;;;;;;5053527;28;20025;-63
2021/05/30 12:34:41;;;;;;;4.22;1.70;;;19.30;44.60;;;;;;5040030;28;20082;-63
2021/05/30 12:37:06;;;;;;;3.35;1.60;;;19.30;45.80;;;;;;5043903;28;20025;-64
2021/05/30 12:39:32;;;;;;;2.72;1.42;;;19.20;45.10;;;;;;5054109;28;20155;-63
2021/05/30 12:42:06;;;;;;;4.30;1.70;;;19.20;44.70;;;;;;5054316;28;20138;-64
2021/05/30 12:44:43;;;;;;;4.68;2.10;;;19.20;44.60;;;;;;5053978;28;20148;-64
2021/05/30 12:47:15;;;;;;;1.50;1.20;;;19.10;44.30;;;;;;5054073;28;20048;-63
2021/05/30 12:49:55;;;;;;;1.73;1.27;;;19.20;44.50;;;;;;5053979;28;20028;-63
2021/05/30 12:52:21;;;;;;;3.80;1.55;;;19.40;44.90;;;;;;5053006;28;20487;-62
2021/05/30 12:54:57;;;;;;;6.03;1.63;;;19.50;44.60;;;;;;5048941;28;20056;-63
2021/05/30 12:57:34;;;;;;;2.33;1.70;;;19.70;44.60;;;;;;5045845;28;20052;-64